Windsor Park, Mississippi
Current Conditions -  °F | °C
As of 5:58 PM on Friday 24 Oct 2014 (Local Time) from KBIX Reporting Station
Clear Clear  
Wind Chill: 73°   Ceiling: Unl
Heat Index: 73°   Visibility: 10mi
Dew Point: 48°   Wind: 6mph
Humidity: 41%   Direction: 10°N
Pressure: 30.03"   Gusts: NA
Location:  30.418°N, 88.7558°W
Report Text: KBIX 242258Z AUTO 01005KT 10SM CLR 23/09 A3003 RMK AO2 SLP172 T02280088
Loading
Personal Weather Stations






























Interactive Weather Map
Tropical Storm Tracking
New forecast layout! Learn more

10-Day Weather Forecast

Advertisements
Track Severe Weather on mobile